Time;durP1;ratioP1;P1;durP2;ratioP2;P2;SDS_P1;SDS_P2;PMS_P1;PMS_P2;Temp;Humidity;BMP_temperature;BMP_pressure;BME280_temperature;BME280_humidity;BME280_pressure;Samples;Min_cycle;Max_cycle;Signal;HPM_P1;HPM_P2
2023/06/13 00:00:42;;;;;;;7.40;2.10;;;;;;;16.10;55.13;100526.38;105239;1258;60563;-52
2023/06/13 00:03:13;;;;;;;5.00;2.00;;;;;;;16.13;54.94;100522.58;105279;1261;60340;-51
2023/06/13 00:05:45;;;;;;;6.00;2.30;;;;;;;16.14;54.92;100519.11;105699;1257;64966;-52
2023/06/13 00:08:19;;;;;;;12.30;2.20;;;;;;;16.15;55.13;100516.84;105338;1259;61406;-51
2023/06/13 00:10:47;;;;;;;5.80;2.10;;;;;;;16.16;54.57;100513.95;105171;1259;63892;-48
2023/06/13 00:13:15;;;;;;;7.50;2.20;;;;;;;16.14;54.32;100515.16;106063;1262;60439;-51
2023/06/13 00:15:50;;;;;;;6.00;2.10;;;;;;;16.11;54.31;100515.90;105081;1257;60399;-50
2023/06/13 00:18:19;;;;;;;5.70;2.10;;;;;;;16.05;54.58;100512.05;105590;1259;65090;-48
2023/06/13 00:20:47;;;;;;;6.70;2.70;;;;;;;16.00;54.50;100509.55;105280;1258;61416;-51
2023/06/13 00:23:18;;;;;;;7.60;2.10;;;;;;;15.96;54.45;100511.38;105073;1259;64392;-51
2023/06/13 00:25:45;;;;;;;4.80;2.30;;;;;;;15.92;54.33;100508.74;105341;1260;60510;-52
2023/06/13 00:28:13;;;;;;;6.30;2.60;;;;;;;15.89;54.52;100510.34;105497;1258;60877;-51
2023/06/13 00:30:40;;;;;;;7.10;2.30;;;;;;;15.86;54.66;100512.23;105435;1258;65088;-53
2023/06/13 00:33:10;;;;;;;6.10;2.40;;;;;;;15.84;54.78;100509.21;105352;1261;61635;-52
2023/06/13 00:35:38;;;;;;;6.50;1.90;;;;;;;15.88;54.61;100506.02;105734;1259;63736;-50
2023/06/13 00:38:06;;;;;;;7.70;2.30;;;;;;;15.93;54.28;100503.55;105414;1257;60920;-50
2023/06/13 00:40:35;;;;;;;9.00;1.90;;;;;;;15.96;54.28;100498.82;106332;1255;61102;-51
2023/06/13 00:43:03;;;;;;;6.20;2.70;;;;;;;15.97;54.42;100502.02;105301;1254;64877;-51
2023/06/13 00:45:31;;;;;;;8.20;2.60;;;;;;;16.00;54.39;100499.84;105570;1260;61379;-51
2023/06/13 00:48:02;;;;;;;6.70;2.40;;;;;;;16.01;54.22;100498.67;105402;1261;64369;-51
2023/06/13 00:50:32;;;;;;;9.20;2.30;;;;;;;16.02;54.14;100499.11;105213;1260;61042;-51
2023/06/13 00:53:09;;;;;;;5.20;2.10;;;;;;;16.02;54.38;100499.42;105529;1260;60441;-50
2023/06/13 00:55:37;;;;;;;5.50;2.20;;;;;;;16.01;54.24;100496.52;105540;1254;64946;-50
2023/06/13 00:58:07;;;;;;;5.20;2.20;;;;;;;16.00;54.17;100495.45;105309;1258;61374;-49
2023/06/13 01:00:35;;;;;;;6.10;2.40;;;;;;;15.97;54.08;100496.38;105329;1260;63760;-50
2023/06/13 01:03:07;;;;;;;5.50;2.20;;;;;;;15.95;54.17;100498.41;105387;1254;60649;-50
2023/06/13 01:05:35;;;;;;;4.60;2.20;;;;;;;15.90;54.22;100495.92;105288;1254;60636;-49
2023/06/13 01:08:06;;;;;;;7.20;2.30;;;;;;;15.84;54.13;100497.51;105273;1262;63703;-49
2023/06/13 01:10:33;;;;;;;7.80;2.40;;;;;;;15.81;54.24;100495.92;105410;1257;60832;-50
2023/06/13 01:13:04;;;;;;;9.40;2.60;;;;;;;15.79;54.55;100494.11;105461;1255;63743;-50
2023/06/13 01:15:33;;;;;;;5.80;1.90;;;;;;;15.77;54.60;100494.69;105245;1256;60984;-50
2023/06/13 01:18:01;;;;;;;8.10;2.30;;;;;;;15.81;54.76;100493.63;105403;1254;60446;-52
2023/06/13 01:20:28;;;;;;;5.40;1.90;;;;;;;15.87;54.77;100492.12;105316;1257;63743;-50
2023/06/13 01:23:06;;;;;;;4.70;1.70;;;;;;;15.90;54.61;100485.44;105521;1257;61883;-50
2023/06/13 01:25:47;;;;;;;5.20;2.10;;;;;;;15.92;54.69;100483.42;105768;1258;64105;-51
2023/06/13 01:28:14;;;;;;;6.20;1.80;;;;;;;15.95;54.55;100484.74;105361;1257;60563;-51
2023/06/13 01:30:42;;;;;;;6.10;2.30;;;;;;;15.96;54.55;100482.87;105359;1254;60510;-51
2023/06/13 01:33:09;;;;;;;5.50;2.10;;;;;;;15.97;54.46;100480.81;105354;1254;64865;-51
2023/06/13 01:35:37;;;;;;;5.80;2.00;;;;;;;15.95;54.25;100483.13;105470;1254;61468;-53
2023/06/13 01:38:05;;;;;;;6.80;2.10;;;;;;;15.91;54.38;100481.63;105337;1257;62482;-51
2023/06/13 01:40:32;;;;;;;8.10;2.20;;;;;;;15.87;54.34;100478.12;105392;1255;60492;-51
2023/06/13 01:42:59;;;;;;;7.10;2.10;;;;;;;15.84;54.53;100481.81;105359;1260;61351;-51
2023/06/13 01:45:27;;;;;;;5.60;2.10;;;;;;;15.81;54.57;100484.38;105384;1261;65505;-51
2023/06/13 01:48:02;;;;;;;6.80;2.20;;;;;;;15.78;54.86;100485.53;105401;1260;61355;-51
2023/06/13 01:50:46;;;;;;;10.10;2.40;;;;;;;15.80;54.72;100488.55;105233;1257;63767;-51
2023/06/13 01:53:25;;;;;;;5.30;2.30;;;;;;;15.84;54.60;100488.84;105465;1257;60570;-51
2023/06/13 01:56:06;;;;;;;10.80;2.40;;;;;;;15.87;54.61;100486.11;105348;1257;60378;-50
2023/06/13 01:58:47;;;;;;;5.30;2.10;;;;;;;15.87;54.69;100485.91;105383;1260;63898;-53
2023/06/13 02:01:14;;;;;;;5.60;2.30;;;;;;;15.87;54.52;100482.02;105922;1256;60835;-51
2023/06/13 02:03:42;;;;;;;5.10;2.10;;;;;;;15.86;54.66;100483.75;105367;1260;62433;-51
2023/06/13 02:06:10;;;;;;;8.00;2.70;;;;;;;15.83;54.55;100482.10;105388;1254;60559;-51
2023/06/13 02:08:37;;;;;;;8.80;2.30;;;;;;;15.78;54.57;100481.84;105420;1259;60469;-51
2023/06/13 02:11:05;;;;;;;5.60;2.30;;;;;;;15.74;54.54;100483.81;105459;1254;63740;-52
2023/06/13 02:13:32;;;;;;;6.70;2.10;;;;;;;15.70;54.81;100485.78;105334;1260;60371;-52
2023/06/13 02:16:00;;;;;;;4.80;2.00;;;;;;;15.67;55.02;100488.91;105069;1257;64739;-52
2023/06/13 02:18:28;;;;;;;7.00;1.80;;;;;;;15.68;54.98;100491.17;105065;1257;60649;-52
2023/06/13 02:20:56;;;;;;;4.90;2.10;;;;;;;15.73;55.16;100494.00;105148;1254;60465;-53
2023/06/13 02:23:23;;;;;;;5.90;1.90;;;;;;;15.76;54.80;100489.78;105136;1260;64916;-52
2023/06/13 02:25:55;;;;;;;4.60;1.80;;;;;;;15.78;54.62;100490.55;105071;1260;61642;-53
2023/06/13 02:28:23;;;;;;;5.40;1.80;;;;;;;15.77;54.33;100488.52;105134;1260;62499;-51
2023/06/13 02:30:52;;;;;;;4.40;1.70;;;;;;;15.75;54.25;100488.16;105376;1254;60531;-51
2023/06/13 02:33:19;;;;;;;9.30;2.70;;;;;;;15.72;54.17;100488.65;105229;1258;60536;-51
2023/06/13 02:35:46;;;;;;;6.40;2.10;;;;;;;15.68;54.15;100486.33;105256;1254;64962;-51
2023/06/13 02:38:15;;;;;;;9.20;2.30;;;;;;;15.66;54.29;100489.38;105306;1260;60461;-53
2023/06/13 02:40:42;;;;;;;7.10;2.40;;;;;;;15.66;54.72;100489.23;106010;1260;63875;-51
2023/06/13 02:43:10;;;;;;;6.30;2.20;;;;;;;15.65;54.71;100487.58;105310;1258;60657;-52
2023/06/13 02:45:38;;;;;;;5.50;2.30;;;;;;;15.61;54.55;100487.04;105457;1259;60575;-51
2023/06/13 02:48:06;;;;;;;5.50;1.90;;;;;;;15.58;54.33;100489.17;105393;1254;64851;-51
2023/06/13 02:50:34;;;;;;;6.30;2.40;;;;;;;15.55;54.37;100486.06;105266;1255;61506;-50
2023/06/13 02:53:01;;;;;;;6.40;2.10;;;;;;;15.53;54.40;100487.11;105258;1257;63850;-51
2023/06/13 02:55:30;;;;;;;6.30;2.00;;;;;;;15.55;54.29;100488.94;105182;1256;60505;-53
2023/06/13 02:57:57;;;;;;;6.30;2.20;;;;;;;15.59;54.49;100487.40;105729;1259;60514;-52
2023/06/13 03:00:25;;;;;;;8.20;2.30;;;;;;;15.64;54.62;100489.77;105183;1259;65084;-51
2023/06/13 03:03:03;;;;;;;5.90;2.00;;;;;;;15.68;54.66;100488.86;105250;1254;61390;-55
2023/06/13 03:05:32;;;;;;;6.40;2.40;;;;;;;15.70;54.42;100484.98;105408;1255;63725;-50
2023/06/13 03:08:02;;;;;;;5.00;1.80;;;;;;;15.71;54.25;100479.70;105258;1260;60565;-52
2023/06/13 03:10:29;;;;;;;6.70;2.50;;;;;;;15.71;54.26;100482.35;105278;1260;60442;-52
2023/06/13 03:12:57;;;;;;;6.40;2.60;;;;;;;15.72;54.67;100486.00;105305;1254;65051;-52
2023/06/13 03:15:27;;;;;;;7.70;2.20;;;;;;;15.71;54.42;100487.11;105105;1261;60960;-51
2023/06/13 03:17:56;;;;;;;5.30;2.30;;;;;;;15.70;54.45;100490.80;105392;1256;63714;-52
2023/06/13 03:20:24;;;;;;;10.80;2.60;;;;;;;15.69;54.63;100486.27;105253;1257;60540;-53
2023/06/13 03:22:58;;;;;;;7.00;2.10;;;;;;;15.68;54.73;100487.63;105272;1256;60423;-54
2023/06/13 03:25:26;;;;;;;5.80;2.10;;;;;;;15.67;54.47;100492.63;105333;1256;64912;-50
2023/06/13 03:27:53;;;;;;;5.90;1.80;;;;;;;15.74;54.34;100493.86;105395;1257;60474;-49
2023/06/13 03:30:21;;;;;;;7.50;2.10;;;;;;;15.82;53.95;100493.20;105294;1254;64213;-51
2023/06/13 03:32:54;;;;;;;7.50;2.20;;;;;;;15.85;53.86;100495.32;105225;1254;60568;-49
2023/06/13 03:35:24;;;;;;;5.30;2.10;;;;;;;15.86;53.97;100497.84;105380;1260;60302;-50
2023/06/13 03:37:52;;;;;;;7.90;2.40;;;;;;;15.88;53.95;100499.63;105280;1254;63622;-50
2023/06/13 03:40:20;;;;;;;8.00;2.20;;;;;;;15.88;53.88;100504.23;105380;1255;61910;-50
2023/06/13 03:42:50;;;;;;;6.60;2.00;;;;;;;15.89;54.05;100501.89;105608;1255;64278;-50
2023/06/13 03:45:19;;;;;;;8.90;2.70;;;;;;;15.89;54.04;100508.05;105519;1260;60543;-51
2023/06/13 03:47:47;;;;;;;5.10;2.20;;;;;;;15.88;53.90;100504.59;109125;1254;58427;-53
2023/06/13 03:50:15;;;;;;;7.10;2.40;;;;;;;15.86;53.86;100506.17;105872;1257;65497;-51
2023/06/13 03:52:44;;;;;;;7.90;2.40;;;;;;;15.85;53.89;100506.33;105373;1257;61716;-50
2023/06/13 03:55:11;;;;;;;8.60;2.30;;;;;;;15.83;54.04;100504.73;105405;1257;64231;-51
2023/06/13 03:57:40;;;;;;;5.00;2.00;;;;;;;15.82;54.04;100504.35;105325;1254;60394;-52
2023/06/13 04:00:08;;;;;;;7.00;2.10;;;;;;;15.81;54.25;100499.83;105525;1258;60361;-50
2023/06/13 04:02:39;;;;;;;8.80;2.50;;;;;;;15.84;54.05;100497.71;105298;1260;65373;-51
2023/06/13 04:05:08;;;;;;;7.50;2.20;;;;;;;15.89;53.88;100492.83;105477;1260;61387;-50
2023/06/13 04:07:36;;;;;;;6.10;2.00;;;;;;;15.91;53.70;100494.33;105381;1253;62485;-49
2023/06/13 04:10:05;;;;;;;5.10;2.20;;;;;;;15.91;53.53;100495.60;105603;1254;60461;-49
2023/06/13 04:12:35;;;;;;;4.90;1.80;;;;;;;15.91;53.51;100498.61;105440;1257;60496;-50
2023/06/13 04:15:04;;;;;;;7.50;2.50;;;;;;;15.91;53.53;100504.41;105405;1259;64883;-50
2023/06/13 04:17:32;;;;;;;9.90;2.50;;;;;;;15.91;53.72;100509.20;105366;1254;60504;-50
2023/06/13 04:20:01;;;;;;;8.80;2.60;;;;;;;15.90;53.62;100512.87;105338;1261;63811;-51
2023/06/13 04:22:28;;;;;;;9.00;2.50;;;;;;;15.89;54.20;100509.75;105565;1253;60620;-50
2023/06/13 04:24:56;;;;;;;6.00;2.40;;;;;;;15.90;54.23;100507.90;105457;1254;60574;-50
2023/06/13 04:27:28;;;;;;;5.30;2.10;;;;;;;15.90;54.20;100509.10;105228;1256;64845;-50
2023/06/13 04:29:56;;;;;;;6.60;2.50;;;;;;;15.90;53.99;100511.45;105497;1253;61593;-50
2023/06/13 04:32:28;;;;;;;6.50;2.30;;;;;;;15.89;53.98;100514.55;105341;1254;63688;-51
2023/06/13 04:34:58;;;;;;;5.40;2.10;;;;;;;15.87;54.14;100513.70;105383;1255;61018;-51
2023/06/13 04:37:25;;;;;;;5.80;2.10;;;;;;;15.87;54.23;100515.23;105452;1260;60394;-52
2023/06/13 04:39:53;;;;;;;6.30;2.60;;;;;;;15.95;53.99;100515.91;105348;1254;64940;-51
2023/06/13 04:42:26;;;;;;;7.70;2.60;;;;;;;16.05;54.25;100512.98;105307;1255;60449;-50
2023/06/13 04:45:01;;;;;;;6.80;2.50;;;;;;;16.14;54.05;100514.54;106712;1256;62607;-51
2023/06/13 04:47:32;;;;;;;3.50;1.60;;;;;;;16.19;54.04;100514.06;108983;1256;58204;-50
2023/06/13 04:50:21;;;;;;;6.20;2.50;;;;;;;16.24;53.87;100515.98;109113;1254;58202;-52
2023/06/13 04:52:53;;;;;;;6.20;2.70;;;;;;;16.29;53.65;100515.25;106304;1254;63719;-50
2023/06/13 04:55:22;;;;;;;5.00;2.30;;;;;;;16.32;53.47;100515.17;108974;1254;61564;-51
2023/06/13 04:57:50;;;;;;;4.80;2.10;;;;;;;16.33;53.35;100514.45;107608;1256;62502;-50
2023/06/13 05:00:19;;;;;;;4.90;2.40;;;;;;;16.37;53.61;100516.46;109075;1253;58251;-51
2023/06/13 05:02:48;;;;;;;7.10;2.10;;;;;;;16.41;53.25;100514.80;109163;1255;58788;-51
2023/06/13 05:05:18;;;;;;;5.40;2.30;;;;;;;16.46;53.61;100512.13;108630;1255;64886;-49
2023/06/13 05:07:47;;;;;;;7.40;3.00;;;;;;;16.52;53.68;100512.80;105341;1255;61380;-49
2023/06/13 05:10:16;;;;;;;8.20;2.80;;;;;;;16.55;53.46;100509.98;105432;1257;63761;-50
2023/06/13 05:12:45;;;;;;;8.00;2.60;;;;;;;16.58;53.41;100509.92;105368;1253;60829;-51
2023/06/13 05:15:13;;;;;;;8.00;2.60;;;;;;;16.60;53.33;100503.98;105474;1259;60376;-51
2023/06/13 05:17:40;;;;;;;10.70;2.50;;;;;;;16.63;53.45;100503.27;105368;1254;64994;-51
2023/06/13 05:20:10;;;;;;;6.50;2.10;;;;;;;16.71;53.29;100503.41;105460;1257;61648;-50
2023/06/13 05:22:41;;;;;;;6.30;2.30;;;;;;;16.80;53.14;100503.48;105364;1260;63774;-50
2023/06/13 05:25:09;;;;;;;7.30;3.30;;;;;;;16.88;53.14;100500.05;105192;1254;291377;-51
2023/06/13 05:28:25;;;;;;;5.80;2.30;;;;;;;16.75;53.26;100500.31;102455;1296;600389;-52
2023/06/13 05:30:53;;;;;;;9.80;2.60;;;;;;;16.97;52.46;100501.02;104750;1267;59333;-50
2023/06/13 05:33:21;;;;;;;8.50;3.00;;;;;;;17.03;52.55;100498.10;104755;1267;59388;-50
2023/06/13 05:35:49;;;;;;;7.40;2.50;;;;;;;17.09;52.68;100495.94;104540;1267;63244;-51
2023/06/13 05:38:24;;;;;;;6.50;2.70;;;;;;;17.12;52.58;100490.39;104535;1270;61414;-49
2023/06/13 05:40:52;;;;;;;6.20;2.80;;;;;;;17.13;51.97;100491.09;104640;1264;183459;-49
2023/06/13 05:43:20;;;;;;;6.60;3.20;;;;;;;17.10;52.10;100492.57;104742;1267;59552;-50
2023/06/13 05:45:48;;;;;;;6.10;3.40;;;;;;;17.12;52.04;100496.14;104740;1267;59511;-52
2023/06/13 05:48:15;;;;;;;5.50;2.60;;;;;;;17.10;51.69;100496.63;104720;1263;62034;-50
2023/06/13 05:50:43;;;;;;;5.50;2.60;;;;;;;17.10;51.83;100499.11;105023;1273;61307;-51
2023/06/13 05:53:11;;;;;;;8.00;2.90;;;;;;;17.14;51.67;100500.83;104908;1273;62502;-50
2023/06/13 05:55:38;;;;;;;6.40;2.90;;;;;;;17.20;51.94;100501.56;104964;1263;59734;-50
2023/06/13 05:58:06;;;;;;;5.10;2.70;;;;;;;17.24;52.11;100502.00;104896;1264;59993;-50
2023/06/13 06:00:34;;;;;;;6.70;3.40;;;;;;;17.30;52.22;100497.08;104941;1267;64145;-50
2023/06/13 06:03:05;;;;;;;7.70;3.60;;;;;;;17.36;52.20;100496.77;104829;1264;61410;-50
2023/06/13 06:05:33;;;;;;;7.80;3.40;;;;;;;17.37;51.38;100493.95;104989;1264;63683;-51
2023/06/13 06:08:00;;;;;;;7.30;3.70;;;;;;;17.36;51.34;100492.68;104951;1263;61238;-51
2023/06/13 06:10:28;;;;;;;5.70;2.90;;;;;;;17.36;51.87;100494.98;104871;1264;59669;-53
2023/06/13 06:12:56;;;;;;;9.70;3.60;;;;;;;17.44;52.07;100497.27;104855;1264;64213;-46
2023/06/13 06:15:23;;;;;;;6.20;3.30;;;;;;;17.56;52.32;100495.10;104976;1267;60135;-46
2023/06/13 06:17:51;;;;;;;7.00;3.40;;;;;;;17.69;52.26;100491.83;104723;1264;63885;-54
2023/06/13 06:20:18;;;;;;;7.70;3.80;;;;;;;17.83;52.18;100492.80;104907;1264;59746;-54
2023/06/13 06:22:46;;;;;;;7.20;4.10;;;;;;;17.94;51.63;100494.20;104792;1264;59749;-47
2023/06/13 06:25:19;;;;;;;13.80;4.00;;;;;;;18.03;50.91;100495.73;104712;1264;62944;-51
2023/06/13 06:27:50;;;;;;;7.10;4.40;;;;;;;18.05;50.31;100494.50;104834;1264;61369;-49
2023/06/13 06:30:18;;;;;;;7.60;4.00;;;;;;;18.07;50.03;100489.83;104688;1269;63879;-50
2023/06/13 06:32:45;;;;;;;8.00;4.80;;;;;;;18.09;50.35;100491.90;104815;1266;59623;-50
2023/06/13 06:35:14;;;;;;;7.00;4.20;;;;;;;18.15;50.70;100490.48;105839;1263;59727;-49
2023/06/13 06:37:43;;;;;;;11.50;3.80;;;;;;;18.24;50.66;100489.50;104735;1267;64071;-49
2023/06/13 06:40:11;;;;;;;8.50;4.40;;;;;;;18.35;50.83;100488.54;104843;1270;61861;-49
2023/06/13 06:42:39;;;;;;;7.00;4.70;;;;;;;18.45;50.78;100491.16;105028;1264;64403;-50
2023/06/13 06:45:12;;;;;;;8.40;4.50;;;;;;;18.50;50.13;100487.48;104617;1269;59756;-47
2023/06/13 06:47:40;;;;;;;7.70;4.50;;;;;;;18.54;49.46;100485.64;104780;1269;59570;-48
2023/06/13 06:50:08;;;;;;;9.80;4.70;;;;;;;18.58;49.49;100485.27;104857;1264;64203;-49
2023/06/13 06:52:36;;;;;;;8.80;4.40;;;;;;;18.57;49.31;100481.77;104939;1265;61330;-48
2023/06/13 06:55:04;;;;;;;8.00;4.40;;;;;;;18.52;49.75;100484.05;105185;1258;63574;-50
2023/06/13 06:57:32;;;;;;;9.80;5.40;;;;;;;18.54;50.15;100489.23;105253;1260;59794;-52
2023/06/13 06:59:59;;;;;;;8.90;5.10;;;;;;;18.62;50.22;100488.54;105061;1258;60074;-51
2023/06/13 07:02:27;;;;;;;8.10;5.00;;;;;;;18.72;50.16;100485.23;105128;1257;64164;-52
2023/06/13 07:04:54;;;;;;;7.80;4.50;;;;;;;18.84;49.59;100482.53;105193;1262;61209;-49
2023/06/13 07:07:22;;;;;;;7.70;4.60;;;;;;;18.93;49.35;100482.56;105183;1257;63778;-47
2023/06/13 07:09:50;;;;;;;7.30;4.70;;;;;;;19.03;48.78;100478.40;105194;1257;59767;-49
2023/06/13 07:12:17;;;;;;;8.40;5.10;;;;;;;19.06;48.56;100469.16;105123;1257;59706;-49
2023/06/13 07:14:44;;;;;;;9.30;4.80;;;;;;;19.10;48.93;100469.56;105162;1262;64056;-49
2023/06/13 07:17:12;;;;;;;11.10;4.30;;;;;;;19.19;48.98;100469.10;105317;1257;61471;-50
2023/06/13 07:19:40;;;;;;;7.90;5.20;;;;;;;19.29;49.11;100466.57;105189;1258;63690;-50
2023/06/13 07:22:07;;;;;;;8.30;5.50;;;;;;;19.38;48.81;100464.97;105124;1257;59927;-52
2023/06/13 07:24:35;;;;;;;7.20;4.90;;;;;;;19.46;48.61;100467.73;105056;1263;59713;-49
2023/06/13 07:27:03;;;;;;;10.40;5.10;;;;;;;19.54;48.43;100466.34;105226;1262;64024;-51
2023/06/13 07:29:30;;;;;;;7.90;4.90;;;;;;;19.64;48.53;100467.38;105143;1257;61378;-51
2023/06/13 07:31:58;;;;;;;7.20;4.20;;;;;;;19.78;48.71;100468.33;105145;1261;63744;-51
2023/06/13 07:34:25;;;;;;;9.40;5.30;;;;;;;19.91;48.41;100468.24;105083;1260;59761;-48
2023/06/13 07:36:56;;;;;;;9.70;4.10;;;;;;;19.99;47.38;100463.19;105195;1263;59730;-48
2023/06/13 07:39:23;;;;;;;11.80;4.80;;;;;;;19.96;47.25;100467.79;105159;1262;64139;-48
2023/06/13 07:41:51;;;;;;;8.40;4.60;;;;;;;19.95;47.60;100471.48;105097;1257;61443;-49
2023/06/13 07:44:18;;;;;;;9.70;4.80;;;;;;;19.99;47.78;100472.97;105031;1257;63778;-50
2023/06/13 07:46:47;;;;;;;9.10;4.80;;;;;;;20.04;47.49;100467.21;105188;1257;60481;-47
2023/06/13 07:49:15;;;;;;;10.90;5.10;;;;;;;20.07;46.69;100469.39;105494;1254;59698;-48
2023/06/13 07:51:43;;;;;;;9.50;4.00;;;;;;;20.07;46.88;100467.95;105549;1253;64070;-51
2023/06/13 07:54:10;;;;;;;7.10;4.70;;;;;;;20.11;47.79;100465.63;105414;1254;61386;-53
2023/06/13 07:56:38;;;;;;;8.00;4.30;;;;;;;20.18;48.18;100469.39;105689;1253;62445;-52
2023/06/13 07:59:06;;;;;;;8.40;4.00;;;;;;;20.27;47.46;100470.50;105388;1254;59640;-52
2023/06/13 08:01:34;;;;;;;8.40;4.60;;;;;;;20.31;47.04;100469.69;105702;1253;59554;-51
2023/06/13 08:04:02;;;;;;;6.30;4.40;;;;;;;20.32;46.88;100468.34;105340;1259;64151;-52
2023/06/13 08:06:30;;;;;;;9.70;5.80;;;;;;;20.32;46.85;100461.69;107117;1254;62248;-52
2023/06/13 08:08:57;;;;;;;7.90;4.90;;;;;;;20.33;46.54;100463.52;105544;1254;63723;-53
2023/06/13 08:11:25;;;;;;;7.30;4.60;;;;;;;20.35;47.11;100468.01;105432;1259;60101;-52
2023/06/13 08:13:53;;;;;;;7.80;5.30;;;;;;;20.36;47.30;100469.34;105406;1254;59810;-51
2023/06/13 08:16:21;;;;;;;6.80;4.60;;;;;;;20.34;46.83;100464.68;105641;1254;64115;-53
2023/06/13 08:18:49;;;;;;;8.10;5.10;;;;;;;20.25;46.59;100468.05;105354;1254;61358;-53
2023/06/13 08:21:17;;;;;;;9.80;6.20;;;;;;;20.17;47.21;100467.40;105453;1253;63747;-53
2023/06/13 08:23:44;;;;;;;7.30;4.80;;;;;;;20.12;47.46;100469.22;105427;1254;59695;-53
2023/06/13 08:26:12;;;;;;;7.70;4.80;;;;;;;20.11;47.51;100467.85;105401;1254;59980;-51
2023/06/13 08:28:42;;;;;;;7.80;5.50;;;;;;;20.14;47.75;100466.60;105432;1259;64078;-51
2023/06/13 08:31:10;;;;;;;8.30;5.60;;;;;;;20.16;46.83;100469.66;105464;1254;61351;-51
2023/06/13 08:34:00;;;;;;;8.00;5.80;;;;;;;20.15;46.58;100473.20;105482;1256;63708;-53
2023/06/13 08:36:36;;;;;;;8.60;5.20;;;;;;;20.09;46.76;100472.67;105680;1254;59722;-53
2023/06/13 08:39:04;;;;;;;7.70;5.20;;;;;;;20.07;46.76;100470.55;105560;1254;59674;-54
2023/06/13 08:41:32;;;;;;;9.50;5.80;;;;;;;20.08;47.40;100468.47;105470;1258;64155;-54
2023/06/13 08:44:01;;;;;;;12.50;5.60;;;;;;;20.16;47.66;100468.05;105427;1254;61482;-53
2023/06/13 08:46:29;;;;;;;8.40;4.80;;;;;;;20.32;46.94;100464.30;105254;1257;70842;-53
2023/06/13 08:48:57;;;;;;;8.30;5.60;;;;;;;20.44;46.92;100461.52;105567;1254;59772;-52
2023/06/13 08:51:24;;;;;;;8.10;5.60;;;;;;;20.56;46.57;100463.31;105363;1254;59654;-55
2023/06/13 08:53:53;;;;;;;8.20;4.90;;;;;;;20.64;46.25;100462.77;105381;1254;64559;-54
2023/06/13 08:56:21;;;;;;;7.50;4.70;;;;;;;20.71;46.18;100464.16;105475;1254;61347;-50
2023/06/13 08:58:53;;;;;;;6.90;4.80;;;;;;;20.78;45.76;100468.43;105337;1254;63791;-54
2023/06/13 09:01:21;;;;;;;10.70;5.70;;;;;;;20.81;45.38;100470.17;105483;1254;60931;-54
2023/06/13 09:03:49;;;;;;;8.60;6.00;;;;;;;20.80;45.74;100473.47;105407;1253;59740;-53
2023/06/13 09:06:19;;;;;;;8.40;5.40;;;;;;;20.77;45.12;100474.54;105320;1253;64155;-55
2023/06/13 09:08:47;;;;;;;6.40;4.70;;;;;;;20.66;45.26;100475.14;105483;1251;61521;-54
2023/06/13 09:11:14;;;;;;;7.60;5.00;;;;;;;20.57;46.17;100480.61;105543;1254;63906;-54
2023/06/13 09:13:45;;;;;;;10.20;5.80;;;;;;;20.51;45.86;100478.80;105512;1254;59790;-55
2023/06/13 09:16:13;;;;;;;7.70;4.40;;;;;;;20.44;45.61;100477.80;105413;1256;59625;-55
2023/06/13 09:18:43;;;;;;;7.10;4.70;;;;;;;20.35;45.99;100476.45;105718;1254;73036;-55
2023/06/13 09:21:10;;;;;;;6.80;4.90;;;;;;;20.33;46.53;100476.71;105274;1258;60106;-54
2023/06/13 09:23:38;;;;;;;9.10;5.50;;;;;;;20.34;46.83;100476.80;105367;1254;64766;-53
2023/06/13 09:26:06;;;;;;;9.90;5.40;;;;;;;20.36;46.61;100476.25;105276;1255;59660;-53
2023/06/13 09:28:38;;;;;;;9.90;5.00;;;;;;;20.36;46.13;100469.98;105466;1254;59635;-53
2023/06/13 09:31:09;;;;;;;9.20;5.30;;;;;;;20.37;45.94;100469.69;105549;1253;64130;-53
2023/06/13 09:33:37;;;;;;;6.40;4.00;;;;;;;20.40;45.59;100473.63;105537;1251;61399;-52
2023/06/13 09:36:05;;;;;;;8.30;5.10;;;;;;;20.41;45.75;100475.38;105537;1254;63734;-53
2023/06/13 09:38:34;;;;;;;6.70;4.30;;;;;;;20.42;45.93;100476.63;105680;1254;60354;-54
2023/06/13 09:41:03;;;;;;;7.90;5.10;;;;;;;20.44;45.90;100480.96;105633;1254;60648;-52
2023/06/13 09:43:31;;;;;;;6.80;4.30;;;;;;;20.47;46.04;100481.86;105509;1254;66614;-53
2023/06/13 09:46:00;;;;;;;7.40;4.10;;;;;;;20.49;46.20;100483.95;105570;1254;61318;-53
2023/06/13 09:48:27;;;;;;;8.80;5.00;;;;;;;20.50;45.70;100485.40;105521;1254;62664;-54
2023/06/13 09:50:55;;;;;;;7.40;4.70;;;;;;;20.45;45.66;100488.17;105435;1254;60546;-53
2023/06/13 09:53:22;;;;;;;9.10;5.00;;;;;;;20.37;46.08;100485.15;105415;1254;60607;-54
2023/06/13 09:55:50;;;;;;;10.30;5.30;;;;;;;20.27;46.42;100487.67;105490;1256;64935;-52
2023/06/13 09:58:17;;;;;;;8.30;4.50;;;;;;;20.16;46.44;100489.45;106193;1254;61960;-55
2023/06/13 10:00:59;;;;;;;11.40;5.00;;;;;;;20.10;46.88;100494.67;105462;1259;63824;-54
2023/06/13 10:03:28;;;;;;;8.00;4.80;;;;;;;20.09;47.05;100493.54;105556;1253;61725;-53
2023/06/13 10:06:01;;;;;;;9.90;5.10;;;;;;;20.08;46.90;100491.38;105553;1257;60457;-53
2023/06/13 10:08:31;;;;;;;11.20;5.20;;;;;;;20.04;46.96;100492.89;105609;1257;64936;-53
2023/06/13 10:10:59;;;;;;;7.80;5.20;;;;;;;20.03;46.92;100490.05;105605;1254;61354;-53
2023/06/13 10:13:29;;;;;;;9.40;5.10;;;;;;;20.06;46.68;100492.42;105492;1254;63714;-53
2023/06/13 10:16:00;;;;;;;8.40;5.10;;;;;;;20.10;47.16;100488.88;105640;1254;60492;-53
2023/06/13 10:18:37;;;;;;;7.30;5.00;;;;;;;20.17;47.22;100482.57;105530;1253;60530;-53
2023/06/13 10:21:06;;;;;;;10.00;6.10;;;;;;;20.25;46.94;100483.29;105452;1251;64867;-52
2023/06/13 10:23:36;;;;;;;8.50;5.60;;;;;;;20.33;46.93;100485.54;105960;1255;60458;-53
2023/06/13 10:26:08;;;;;;;8.20;5.00;;;;;;;20.42;46.85;100484.09;105468;1254;63728;-53
2023/06/13 10:28:51;;;;;;;8.30;5.00;;;;;;;20.51;46.52;100486.56;105489;1255;60533;-54
2023/06/13 10:31:35;;;;;;;9.80;5.70;;;;;;;20.64;46.40;100486.99;105457;1254;60643;-54
2023/06/13 10:34:22;;;;;;;8.90;5.20;;;;;;;20.75;45.97;100483.81;105598;1254;64967;-51
2023/06/13 10:37:20;;;;;;;8.30;5.60;;;;;;;20.87;45.68;100480.21;105512;1254;61608;-53
2023/06/13 10:39:56;;;;;;;7.90;4.90;;;;;;;20.96;45.27;100478.71;105607;1254;62527;-53
2023/06/13 10:42:28;;;;;;;9.80;5.20;;;;;;;20.96;44.89;100479.66;105464;1253;60531;-52
2023/06/13 10:45:01;;;;;;;6.40;4.40;;;;;;;20.92;45.08;100480.19;105585;1254;60624;-52
2023/06/13 10:47:29;;;;;;;7.90;4.50;;;;;;;20.90;45.33;100479.38;105368;1259;64915;-52
2023/06/13 10:49:57;;;;;;;7.00;4.20;;;;;;;20.93;44.30;100479.53;106097;1254;61318;-53
2023/06/13 10:52:24;;;;;;;7.20;3.90;;;;;;;20.93;44.19;100478.19;105450;1259;63973;-53
2023/06/13 10:54:58;;;;;;;8.20;4.30;;;;;;;20.92;44.23;100473.40;105407;1259;60578;-53
2023/06/13 10:57:45;;;;;;;7.00;4.00;;;;;;;20.89;44.31;100473.86;105400;1254;60510;-53
2023/06/13 11:00:25;;;;;;;7.40;4.30;;;;;;;20.93;44.79;100475.02;105505;1254;65162;-55
2023/06/13 11:03:12;;;;;;;7.10;4.50;;;;;;;20.99;44.45;100472.73;105367;1254;61343;-54
2023/06/13 11:05:46;;;;;;;8.30;4.30;;;;;;;20.99;44.60;100470.26;105589;1254;63725;-51
2023/06/13 11:08:20;;;;;;;7.80;4.40;;;;;;;21.01;44.51;100470.56;105460;1254;60546;-52
2023/06/13 11:10:49;;;;;;;7.60;4.50;;;;;;;21.07;44.67;100473.23;105486;1251;60637;-53
2023/06/13 11:13:27;;;;;;;9.20;4.90;;;;;;;21.17;44.44;100474.20;106046;1257;64900;-53
2023/06/13 11:15:55;;;;;;;8.10;4.80;;;;;;;21.30;44.54;100471.41;105542;1251;61367;-54
2023/06/13 11:18:23;;;;;;;6.60;4.40;;;;;;;21.45;44.13;100473.42;105541;1254;63721;-52
2023/06/13 11:20:56;;;;;;;7.10;4.20;;;;;;;21.57;43.69;100468.55;105681;1253;60534;-54
2023/06/13 11:23:37;;;;;;;10.30;5.10;;;;;;;21.65;43.16;100463.30;105627;1255;60381;-54
2023/06/13 11:26:05;;;;;;;9.90;4.80;;;;;;;21.68;43.36;100460.53;105584;1257;64939;-53
2023/06/13 11:28:33;;;;;;;8.80;5.00;;;;;;;21.76;43.55;100456.39;105401;1259;60510;-53